Time;durP1;ratioP1;P1;durP2;ratioP2;P2;SDS_P1;SDS_P2;PMS_P1;PMS_P2;Temp;Humidity;BMP_temperature;BMP_pressure;BME280_temperature;BME280_humidity;BME280_pressure;Samples;Min_cycle;Max_cycle;Signal;HPM_P1;HPM_P2
2022/05/01 00:02:01;;;;;;;4.97;2.20;;;;;;;9.34;41.52;100486.44;5129560;27;20243;-82
2022/05/01 00:04:33;;;;;;;7.50;2.20;;;;;;;9.54;41.49;100477.59;5126344;28;20066;-79
2022/05/01 00:07:04;;;;;;;64.80;31.88;;;;;;;9.74;40.60;100485.22;5126417;28;20081;-80
2022/05/01 00:09:34;;;;;;;5.70;2.40;;;;;;;9.97;40.51;100478.03;5124860;28;20078;-79
2022/05/01 00:12:07;;;;;;;1.48;1.10;;;;;;;10.36;41.13;100487.19;5125373;28;20464;-80
2022/05/01 00:14:42;;;;;;;5.80;1.13;;;;;;;10.59;39.66;100483.44;5141348;27;20042;-81
2022/05/01 00:17:13;;;;;;;3.10;1.40;;;;;;;10.71;38.64;100483.28;5148915;27;20050;-80
2022/05/01 00:19:43;;;;;;;2.90;1.20;;;;;;;10.68;38.52;100483.28;5134017;27;20096;-80
2022/05/01 00:22:21;;;;;;;3.10;1.70;;;;;;;10.84;39.21;100485.72;5126419;27;20273;-80
2022/05/01 00:24:52;;;;;;;196.07;66.45;;;;;;;11.06;39.35;100484.53;5124316;28;20082;-81
2022/05/01 00:27:23;;;;;;;14.18;5.15;;;;;;;10.98;37.72;100475.91;5124148;28;20224;-81
2022/05/01 00:29:56;;;;;;;14.40;4.13;;;;;;;10.77;36.39;100483.19;5124128;28;20339;-79
2022/05/01 00:36:25;;;;;;;264.13;78.38;;;;;;;10.69;37.54;100485.03;5123971;28;20050;-82
2022/05/01 00:38:06;;;;;;;3.38;1.25;;;;;;;10.66;37.85;100485.09;5123971;28;20063;-80
2022/05/01 00:40:36;;;;;;;17.80;6.35;;;;;;;10.65;36.77;100470.28;5124109;28;20281;-82
2022/05/01 00:43:08;;;;;;;3.60;1.75;;;;;;;11.14;37.12;100477.41;5123707;28;20083;-80
2022/05/01 00:45:41;;;;;;;6.03;2.45;;;;;;;11.45;38.17;100482.16;5124516;28;20055;-82
2022/05/01 00:48:12;;;;;;;1.00;0.90;;;;;;;11.45;35.68;100482.16;5124635;28;20062;-84
2022/05/01 00:50:43;;;;;;;1.98;1.10;;;;;;;11.55;37.15;100478.50;5145208;27;20043;-85
2022/05/01 00:53:14;;;;;;;12.55;6.68;;;;;;;11.66;36.94;100476.56;5160918;27;20135;-83
2022/05/01 00:55:45;;;;;;;261.10;106.03;;;;;;;11.19;35.60;100456.44;5165158;27;20074;-82
2022/05/01 00:58:16;;;;;;;7.03;4.03;;;;;;;11.06;37.84;100468.84;5165541;27;20049;-81
2022/05/01 01:00:48;;;;;;;7.57;3.13;;;;;;;11.19;38.28;100465.13;5165877;27;20377;-80
2022/05/01 01:03:19;;;;;;;4.43;1.30;;;;;;;10.56;35.51;100467.81;5166213;27;20106;-80
2022/05/01 01:05:50;;;;;;;5.95;2.83;;;;;;;10.18;37.35;100466.47;5146126;27;20043;-80
2022/05/01 01:08:21;;;;;;;12.82;6.97;;;;;;;10.42;40.06;100472.34;5145891;27;20050;-85
2022/05/01 01:10:52;;;;;;;3.13;1.90;;;;;;;10.80;39.44;100464.84;5146599;27;20283;-82
2022/05/01 01:13:28;;;;;;;4.20;2.15;;;;;;;11.08;38.57;100467.03;5145950;27;20043;-81
2022/05/01 01:16:00;;;;;;;7.95;2.45;;;;;;;11.31;38.19;100468.47;5147535;27;20381;-83
2022/05/01 01:18:31;;;;;;;8.00;1.65;;;;;;;11.50;37.45;100458.53;5147687;27;20081;-84
2022/05/01 01:21:03;;;;;;;3.47;1.70;;;;;;;11.41;35.31;100459.56;5166967;27;20065;-85
2022/05/01 01:23:34;;;;;;;34.28;14.80;;;;;;;11.16;37.29;100452.13;5167024;27;20231;-84
2022/05/01 01:26:06;;;;;;;6.53;2.10;;;;;;;11.26;37.71;100459.78;5179988;27;20051;-84
2022/05/01 01:28:39;;;;;;;3.65;1.88;;;;;;;11.16;35.34;100444.28;5181467;27;20054;-85
2022/05/01 01:34:10;;;;;;;13.52;5.75;;;;;;;11.01;37.07;100449.75;5181442;27;20033;-82
2022/05/01 01:36:43;;;;;;;6.30;2.70;;;;;;;11.24;37.44;100452.00;5161994;27;20054;-83
2022/05/01 01:39:18;;;;;;;26.58;10.57;;;;;;;11.21;35.01;100452.91;5160250;27;20055;-82
2022/05/01 01:41:49;;;;;;;13.50;3.50;;;;;;;11.32;37.41;100455.34;5160188;27;20031;-82
2022/05/01 01:44:21;;;;;;;53.28;4.55;;;;;;;11.48;36.94;100455.94;5159307;27;20078;-83
2022/05/01 01:46:52;;;;;;;18.63;5.88;;;;;;;11.69;36.59;100443.38;5157779;27;20053;-84
2022/05/01 01:49:22;;;;;;;17.10;5.13;;;;;;;11.85;35.61;100439.56;5157456;27;20051;-84
2022/05/01 01:51:55;;;;;;;8.55;3.10;;;;;;;11.87;36.02;100438.69;5157555;27;20039;-84
2022/05/01 01:54:33;;;;;;;9.43;2.72;;;;;;;12.01;35.40;100446.31;5157793;27;20055;-84
2022/05/01 01:57:05;;;;;;;6.85;2.33;;;;;;;12.20;35.65;100438.06;5159173;27;20055;-83
2022/05/01 01:59:35;;;;;;;18.30;5.40;;;;;;;12.24;34.44;100444.97;5158801;27;20055;-83
2022/05/01 02:02:08;;;;;;;7.60;2.58;;;;;;;12.46;34.44;100438.41;5158801;27;20039;-83
2022/05/01 02:04:39;;;;;;;14.65;3.55;;;;;;;12.54;33.98;100434.75;5158108;27;20034;-84
2022/05/01 02:07:15;;;;;;;13.20;6.93;;;;;;;12.77;35.44;100421.97;5147924;27;20042;-85
2022/05/01 02:09:47;;;;;;;12.85;2.90;;;;;;;13.02;34.76;100429.28;5143971;27;20043;-83
2022/05/01 02:12:20;;;;;;;6.63;1.70;;;;;;;13.07;33.61;100425.63;5143527;27;20110;-83
2022/05/01 02:14:52;;;;;;;12.43;2.38;;;;;;;13.17;34.02;100431.53;5143289;27;20054;-82
2022/05/01 02:17:23;;;;;;;8.40;2.90;;;;;;;13.21;33.88;100427.94;5143324;27;20047;-84
2022/05/01 02:19:54;;;;;;;8.85;4.60;;;;;;;13.24;33.81;100425.25;5143605;27;20042;-84
2022/05/01 02:22:29;;;;;;;13.18;3.90;;;;;;;13.21;33.81;100401.72;5143417;27;20046;-84
2022/05/01 02:24:59;;;;;;;16.30;3.53;;;;;;;13.45;34.29;100431.72;5143310;27;20053;-84
2022/05/01 02:27:30;;;;;;;15.57;3.10;;;;;;;13.35;33.88;100420.63;5143428;27;20051;-83
2022/05/01 02:30:01;;;;;;;12.27;3.53;;;;;;;13.26;33.83;100419.97;5143498;27;20335;-83
2022/05/01 02:32:31;;;;;;;15.75;3.33;;;;;;;13.45;34.77;100429.09;5143498;27;20071;-83
2022/05/01 02:35:02;;;;;;;11.40;2.70;;;;;;;13.46;34.55;100411.63;5143406;27;20111;-83
2022/05/01 02:37:34;;;;;;;10.10;2.58;;;;;;;13.32;34.71;100418.06;5143417;28;20055;-83
2022/05/01 02:40:06;;;;;;;7.43;3.40;;;;;;;13.24;34.00;100419.13;5143285;27;20043;-83
2022/05/01 02:42:37;;;;;;;12.38;3.20;;;;;;;13.05;34.35;100427.44;5143076;27;20075;-83
2022/05/01 02:45:08;;;;;;;13.52;3.95;;;;;;;12.83;34.31;100421.84;5143403;27;20118;-83
2022/05/01 02:47:38;;;;;;;19.60;3.20;;;;;;;12.68;34.51;100425.69;5143691;28;20043;-83
2022/05/01 02:50:10;;;;;;;7.63;2.50;;;;;;;12.58;35.04;100415.41;5143348;27;20047;-83
2022/05/01 02:52:42;;;;;;;28.45;3.50;;;;;;;12.58;34.39;100425.91;5143072;27;20051;-83
2022/05/01 02:55:14;;;;;;;6.90;2.47;;;;;;;12.62;34.54;100423.19;5142720;27;20062;-82
2022/05/01 02:57:44;;;;;;;13.30;2.90;;;;;;;12.51;34.56;100405.09;5143113;28;20086;-82
2022/05/01 03:00:18;;;;;;;13.35;2.90;;;;;;;12.29;34.60;100377.63;5142929;27;20111;-83
2022/05/01 03:02:49;;;;;;;8.02;2.60;;;;;;;12.73;34.77;100422.97;5144126;27;20051;-83
2022/05/01 03:05:20;;;;;;;9.90;2.90;;;;;;;12.91;33.67;100419.91;5144269;27;20264;-83
2022/05/01 03:08:52;;;;;;;117.40;9.07;;;;;;;12.30;33.50;100305.97;5147573;27;20047;-84
2022/05/01 03:11:24;;;;;;;13.90;3.50;;;;;;;13.34;33.36;100418.88;5138996;27;20058;-84
2022/05/01 03:13:55;;;;;;;6.13;2.40;;;;;;;13.49;33.08;100406.28;5147098;27;20122;-84
2022/05/01 03:16:26;;;;;;;7.63;2.80;;;;;;;13.46;32.73;100417.72;5146520;27;20092;-84
2022/05/01 03:24:31;;;;;;;9.80;2.83;;;;;;;12.87;32.40;100423.50;5146846;27;20043;-83
2022/05/01 03:27:04;;;;;;;21.45;3.88;;;;;;;12.74;32.88;100427.31;5147387;27;20066;-83
2022/05/01 03:29:35;;;;;;;8.05;3.70;;;;;;;12.74;33.39;100422.91;5147489;27;20107;-83
2022/05/01 03:32:08;;;;;;;7.55;3.20;;;;;;;12.63;32.24;100408.31;5146647;27;20111;-83
2022/05/01 03:34:39;;;;;;;9.90;3.50;;;;;;;12.84;32.85;100417.47;5146542;27;20043;-83
2022/05/01 03:37:13;;;;;;;54.08;6.78;;;;;;;13.04;33.41;100414.38;5146938;27;20063;-84
2022/05/01 03:39:43;;;;;;;11.73;2.30;;;;;;;13.32;33.09;100415.44;5146838;27;20114;-82
2022/05/01 03:42:16;;;;;;;5.93;3.20;;;;;;;13.57;32.79;100420.06;5147350;27;20108;-82
2022/05/01 03:44:47;;;;;;;9.27;2.55;;;;;;;13.75;31.95;100414.34;5148045;27;20225;-83
2022/05/01 03:47:17;;;;;;;11.43;2.90;;;;;;;13.77;31.11;100412.50;5147728;27;20055;-83
2022/05/01 03:49:48;;;;;;;9.23;3.10;;;;;;;13.41;31.24;100397.75;5147568;27;20050;-83
2022/05/01 03:52:19;;;;;;;6.78;2.45;;;;;;;13.14;29.82;100400.97;5148405;27;20098;-83
2022/05/01 03:54:50;;;;;;;9.70;2.90;;;;;;;13.23;31.72;100407.78;5148045;27;20080;-83
2022/05/01 03:57:38;;;;;;;5.88;2.70;;;;;;;13.65;32.28;100401.47;5148975;27;20089;-84
2022/05/01 04:00:18;;;;;;;5.20;2.80;;;;;;;13.84;31.20;100401.84;5148418;27;20065;-83
2022/05/01 04:02:48;;;;;;;17.60;2.60;;;;;;;13.72;29.78;100403.03;5148304;27;20114;-84
2022/05/01 04:05:19;;;;;;;6.50;2.42;;;;;;;13.44;30.49;100393.28;5146999;27;20086;-83
2022/05/01 04:07:50;;;;;;;8.98;3.08;;;;;;;13.33;30.57;100396.19;5161802;27;20035;-83
2022/05/01 04:10:20;;;;;;;26.27;3.03;;;;;;;13.47;31.39;100387.06;5160933;27;20031;-84
2022/05/01 04:12:52;;;;;;;5.78;3.20;;;;;;;13.43;31.08;100390.66;5161051;27;20037;-83
2022/05/01 04:15:23;;;;;;;9.00;2.35;;;;;;;13.35;30.01;100394.38;5177387;27;20059;-83
2022/05/01 04:17:54;;;;;;;5.25;2.97;;;;;;;13.41;30.99;100382.00;5181501;27;20079;-83
2022/05/01 04:20:25;;;;;;;14.65;3.22;;;;;;;13.68;31.68;100383.88;5164180;27;20029;-81
2022/05/01 04:22:56;;;;;;;6.03;2.15;;;;;;;13.65;30.59;100381.31;5178217;27;20034;-83
2022/05/01 04:25:36;;;;;;;20.45;3.33;;;;;;;13.60;32.09;100375.34;5177159;27;20031;-85
2022/05/01 04:28:11;;;;;;;6.10;2.53;;;;;;;13.48;32.02;100329.31;5158987;27;20027;-84
2022/05/01 04:30:42;;;;;;;9.27;2.60;;;;;;;13.64;30.42;100348.09;5167725;27;20064;-82
2022/05/01 04:33:14;;;;;;;15.43;5.82;;;;;;;12.98;31.33;100310.47;5180405;27;20060;-85
2022/05/01 04:35:47;;;;;;;5.53;2.25;;;;;;;13.16;32.67;100366.84;5168733;27;20053;-85
2022/05/01 04:38:19;;;;;;;17.08;7.35;;;;;;;12.83;31.08;100340.56;5160073;27;20102;-84
2022/05/01 04:40:52;;;;;;;11.65;4.82;;;;;;;12.71;31.75;100362.69;5163393;27;20049;-84
2022/05/01 04:43:26;;;;;;;7.72;3.30;;;;;;;12.94;33.12;100356.88;5149114;27;20099;-85
2022/05/01 04:45:58;;;;;;;19.92;3.10;;;;;;;13.10;33.20;100351.25;5132804;27;20055;-84
2022/05/01 04:48:29;;;;;;;4.00;2.65;;;;;;;13.33;32.67;100369.09;5144870;27;20043;-84
2022/05/01 04:51:00;;;;;;;5.25;2.60;;;;;;;13.46;33.30;100370.47;5159897;27;20095;-84
2022/05/01 04:53:44;;;;;;;6.65;2.80;;;;;;;13.33;31.07;100364.69;5162343;27;20077;-85
2022/05/01 04:59:19;;;;;;;9.52;3.08;;;;;;;13.17;32.10;100368.56;5130488;27;20265;-84
2022/05/01 05:01:50;;;;;;;11.30;2.95;;;;;;;13.26;32.62;100362.22;5144959;27;20043;-79
2022/05/01 05:04:29;;;;;;;10.80;2.60;;;;;;;13.34;32.58;100350.66;5145449;27;20063;-85
2022/05/01 05:07:02;;;;;;;9.82;2.78;;;;;;;13.40;31.91;100349.63;5148811;27;20051;-84
2022/05/01 05:12:20;;;;;;;9.32;2.40;;;;;;;13.51;31.59;100347.59;5125384;27;20059;-84
2022/05/01 05:14:55;;;;;;;8.32;2.10;;;;;;;13.50;32.55;100350.25;5126370;27;20046;-84
2022/05/01 05:17:26;;;;;;;3.80;1.60;;;;;;;13.37;31.07;100350.56;5126566;27;20255;-84
2022/05/01 05:19:57;;;;;;;7.72;1.88;;;;;;;13.24;32.48;100354.38;5141989;27;20077;-84
2022/05/01 05:22:27;;;;;;;3.28;1.80;;;;;;;13.30;33.12;100343.75;5123690;28;20052;-84
2022/05/01 05:24:58;;;;;;;3.80;1.95;;;;;;;13.40;32.02;100359.25;5139310;27;20047;-85
2022/05/01 05:27:29;;;;;;;9.23;2.22;;;;;;;13.31;32.45;100340.25;5141582;27;20095;-84
2022/05/01 05:30:01;;;;;;;4.32;2.25;;;;;;;13.20;30.41;100342.25;5132742;27;20040;-84
2022/05/01 05:32:38;;;;;;;5.53;1.95;;;;;;;12.99;32.10;100353.28;5134095;27;20337;-84
2022/05/01 05:35:09;;;;;;;2.40;1.70;;;;;;;13.20;32.93;100357.97;5132572;27;20369;-85
2022/05/01 05:37:39;;;;;;;2.83;1.42;;;;;;;13.28;32.98;100358.69;5134270;27;20061;-84
2022/05/01 05:40:11;;;;;;;6.10;2.17;;;;;;;13.01;33.80;100314.78;5151204;27;20239;-83
2022/05/01 05:42:42;;;;;;;5.53;2.83;;;;;;;13.23;32.40;100368.41;5142485;27;20126;-85
2022/05/01 05:45:14;;;;;;;7.18;3.00;;;;;;;13.32;32.25;100357.69;5139218;27;20380;-85
2022/05/01 05:47:45;;;;;;;7.85;2.60;;;;;;;13.57;32.37;100362.31;5129383;27;20273;-85
2022/05/01 05:50:15;;;;;;;8.82;3.40;;;;;;;13.71;31.54;100360.16;5134378;27;20055;-86
2022/05/01 05:52:46;;;;;;;11.50;2.95;;;;;;;13.67;31.47;100371.66;5137106;27;20351;-84
2022/05/01 05:55:17;;;;;;;6.28;3.13;;;;;;;13.41;31.10;100350.50;5132003;27;20044;-85
2022/05/01 05:57:49;;;;;;;5.28;2.30;;;;;;;13.51;31.89;100372.97;5126994;27;20049;-84
2022/05/01 06:00:22;;;;;;;8.68;3.17;;;;;;;13.44;31.62;100366.16;5128683;27;20051;-82
2022/05/01 06:02:52;;;;;;;12.65;4.75;;;;;;;13.28;31.68;100363.94;5125989;27;20054;-82
2022/05/01 06:05:23;;;;;;;5.55;2.70;;;;;;;13.25;31.65;100366.59;5135054;27;20071;-80
2022/05/01 06:07:54;;;;;;;9.73;5.18;;;;;;;12.89;31.06;100353.50;5139094;27;20305;-80
2022/05/01 06:10:28;;;;;;;17.48;4.28;;;;;;;12.58;32.43;100334.16;5135791;27;20115;-81
2022/05/01 06:13:13;;;;;;;64.57;5.70;;;;;;;12.83;33.30;100348.44;5123477;27;20327;-81
2022/05/01 06:15:46;;;;;;;6.00;3.30;;;;;;;13.19;33.14;100358.91;5132705;27;20051;-82
2022/05/01 06:18:17;;;;;;;14.02;5.80;;;;;;;13.18;32.65;100349.31;5128710;27;20051;-82
2022/05/01 06:20:49;;;;;;;10.90;3.30;;;;;;;13.37;32.28;100366.31;5131913;27;20058;-82
2022/05/01 06:23:25;;;;;;;114.30;8.40;;;;;;;13.45;32.58;100367.88;5132478;27;20051;-82
2022/05/01 06:26:04;;;;;;;13.35;3.97;;;;;;;13.40;31.82;100368.00;5129903;28;20039;-81
2022/05/01 06:28:35;;;;;;;35.20;5.57;;;;;;;13.21;32.66;100358.88;5121927;28;20059;-82
2022/05/01 06:31:41;;;;;;;53.08;6.18;;;;;;;13.29;32.46;100368.28;5130777;27;20061;-83
2022/05/01 06:34:13;;;;;;;17.63;3.25;;;;;;;13.24;32.52;100361.41;5129649;27;20047;-82
2022/05/01 06:36:44;;;;;;;11.88;3.65;;;;;;;13.21;32.32;100364.97;5124357;28;20051;-82
2022/05/01 06:39:15;;;;;;;9.52;3.50;;;;;;;13.17;33.03;100363.31;5136779;27;20043;-81
2022/05/01 06:41:48;;;;;;;10.57;3.22;;;;;;;12.96;34.04;100359.47;5135907;27;20212;-82
2022/05/01 06:44:19;;;;;;;10.35;2.90;;;;;;;12.64;36.24;100357.63;5157023;27;20050;-80
2022/05/01 06:46:51;;;;;;;4.47;2.10;;;;;;;12.18;36.33;100363.88;5136654;27;20059;-81
2022/05/01 06:49:21;;;;;;;25.75;3.30;;;;;;;11.56;37.75;100365.09;5135696;27;20286;-81
2022/05/01 06:51:52;;;;;;;10.30;2.20;;;;;;;11.49;38.26;100366.09;5126443;27;20044;-82
2022/05/01 06:54:22;;;;;;;7.78;2.00;;;;;;;11.08;39.78;100357.22;5139927;27;20051;-81
2022/05/01 06:56:53;;;;;;;9.85;2.90;;;;;;;10.85;40.72;100370.66;5139615;27;20324;-81
2022/05/01 06:59:24;;;;;;;11.70;1.90;;;;;;;10.70;41.49;100377.00;5132321;27;20209;-80
2022/05/01 07:01:56;;;;;;;12.77;2.75;;;;;;;10.46;42.23;100382.56;5147748;27;20064;-80
2022/05/01 07:04:27;;;;;;;5.88;1.73;;;;;;;10.32;41.35;100378.41;5136146;27;20319;-81
2022/05/01 07:06:57;;;;;;;8.15;2.22;;;;;;;10.31;42.85;100376.69;5135222;27;20043;-80
2022/05/01 07:09:28;;;;;;;11.25;2.08;;;;;;;10.53;42.00;100379.88;5141050;27;20043;-81
2022/05/01 07:11:59;;;;;;;10.75;2.28;;;;;;;10.42;42.13;100365.22;5138217;27;20118;-80
2022/05/01 07:14:30;;;;;;;6.45;1.88;;;;;;;10.38;43.27;100373.97;5140347;27;20047;-81
2022/05/01 07:17:02;;;;;;;5.32;1.95;;;;;;;10.28;42.60;100376.75;5137012;27;20118;-78
2022/05/01 07:19:32;;;;;;;3.00;1.67;;;;;;;10.20;42.70;100380.28;5142732;27;20076;-81
2022/05/01 07:22:04;;;;;;;14.75;2.35;;;;;;;10.24;43.06;100390.69;5140099;27;20048;-80
2022/05/01 07:24:34;;;;;;;9.25;1.92;;;;;;;10.26;43.22;100401.97;5135282;27;20040;-79
2022/05/01 07:27:06;;;;;;;8.43;2.13;;;;;;;10.28;43.19;100400.25;5134764;27;20051;-80
2022/05/01 07:29:36;;;;;;;7.07;2.25;;;;;;;10.20;42.30;100412.47;5138730;27;20503;-81
2022/05/01 07:32:09;;;;;;;9.90;2.30;;;;;;;10.11;43.19;100402.16;5141595;27;20063;-79
2022/05/01 07:34:40;;;;;;;7.55;2.15;;;;;;;10.10;43.83;100406.50;5141096;27;20046;-81
2022/05/01 07:37:11;;;;;;;4.05;2.35;;;;;;;9.80;43.90;100409.47;5143587;27;20110;-83
2022/05/01 07:39:42;;;;;;;6.03;2.53;;;;;;;9.70;44.75;100406.09;5141382;27;20046;-81
2022/05/01 07:42:13;;;;;;;8.30;2.17;;;;;;;9.63;45.13;100409.66;5134161;27;20101;-82
2022/05/01 07:44:44;;;;;;;7.97;3.97;;;;;;;9.46;45.54;100407.19;5128680;27;20039;-83
2022/05/01 07:47:16;;;;;;;13.70;2.70;;;;;;;9.30;46.31;100396.06;5130194;27;20054;-83
2022/05/01 07:49:46;;;;;;;6.85;2.45;;;;;;;9.09;46.99;100406.69;5140409;27;20047;-82
2022/05/01 07:52:17;;;;;;;14.00;4.35;;;;;;;8.82;47.60;100408.59;5138455;27;20350;-82
2022/05/01 07:54:48;;;;;;;8.77;3.75;;;;;;;8.64;47.77;100415.66;5134633;27;20400;-81
2022/05/01 07:57:20;;;;;;;6.45;2.85;;;;;;;8.55;48.09;100413.09;5125342;27;20327;-82
2022/05/01 07:59:51;;;;;;;9.63;2.78;;;;;;;8.51;48.01;100424.44;5138416;27;20055;-81
2022/05/01 08:02:23;;;;;;;16.02;3.60;;;;;;;8.43;48.80;100416.63;5133886;27;20352;-82
2022/05/01 08:04:55;;;;;;;10.10;2.70;;;;;;;8.31;48.33;100394.97;5137325;27;20351;-81
2022/05/01 08:07:25;;;;;;;15.38;2.65;;;;;;;8.37;48.59;100411.44;5128230;27;20051;-82
2022/05/01 08:09:56;;;;;;;8.18;2.47;;;;;;;8.35;48.55;100412.31;5132739;27;20039;-80
2022/05/01 08:12:26;;;;;;;6.53;2.35;;;;;;;8.31;48.81;100415.78;5140445;27;20067;-82
2022/05/01 08:14:57;;;;;;;7.38;3.05;;;;;;;8.16;49.21;100412.41;5137014;27;20073;-81
2022/05/01 08:17:29;;;;;;;10.10;2.40;;;;;;;7.98;48.82;100383.84;5132125;27;20047;-84
2022/05/01 08:22:47;;;;;;;12.20;2.58;;;;;;;8.08;49.32;100434.97;5137341;27;20092;-81
2022/05/01 08:25:20;;;;;;;9.52;3.55;;;;;;;8.02;49.09;100427.22;5130459;27;20051;-81
2022/05/01 08:27:51;;;;;;;11.05;2.75;;;;;;;7.81;50.09;100427.25;5137154;27;20065;-81
2022/05/01 08:30:22;;;;;;;9.48;3.13;;;;;;;7.63;45.88;100421.22;5127741;27;20316;-83
2022/05/01 08:32:54;;;;;;;11.02;3.47;;;;;;;7.59;49.84;100419.53;5132821;27;20465;-82
2022/05/01 08:35:25;;;;;;;28.63;8.00;;;;;;;7.61;50.73;100430.75;5131966;27;20223;-82
2022/05/01 08:37:55;;;;;;;7.45;2.90;;;;;;;7.69;50.74;100421.22;5135491;27;20343;-82
2022/05/01 08:40:26;;;;;;;6.78;3.22;;;;;;;7.50;50.81;100416.91;5133670;27;20044;-82
2022/05/01 08:42:57;;;;;;;66.50;21.35;;;;;;;7.26;52.04;100416.09;5125007;27;20047;-80
2022/05/01 08:45:32;;;;;;;25.65;8.80;;;;;;;7.07;53.08;100416.94;5136933;27;20092;-81
2022/05/01 08:48:13;;;;;;;9.40;2.88;;;;;;;6.88;52.73;100435.09;5136953;27;20056;-82
2022/05/01 08:50:45;;;;;;;8.23;2.45;;;;;;;6.66;53.65;100412.56;5139042;27;20078;-83
2022/05/01 08:53:19;;;;;;;9.95;3.40;;;;;;;6.47;54.37;100401.28;5129834;27;20062;-83
2022/05/01 08:55:49;;;;;;;7.90;2.70;;;;;;;6.63;54.02;100428.13;5129693;27;20057;-82
2022/05/01 08:58:21;;;;;;;10.13;2.72;;;;;;;6.18;54.66;100362.25;5134228;27;20066;-81
2022/05/01 09:00:52;;;;;;;14.32;4.50;;;;;;;6.45;54.62;100424.63;5138058;27;20084;-81
2022/05/01 09:03:25;;;;;;;13.90;3.25;;;;;;;6.32;54.71;100433.25;5141929;27;20043;-83
2022/05/01 09:05:55;;;;;;;13.95;3.45;;;;;;;6.28;55.53;100425.44;5126568;27;20317;-82
2022/05/01 09:08:26;;;;;;;8.40;3.40;;;;;;;6.08;55.85;100420.16;5130143;27;20074;-80
2022/05/01 09:12:49;;;;;;;10.27;2.72;;;;;;;5.93;54.68;100433.91;5134217;27;20058;-80
2022/05/01 09:13:50;;;;;;;13.13;4.00;;;;;;;5.77;56.69;100422.56;5144269;27;20398;-85
2022/05/01 09:16:21;;;;;;;10.27;3.85;;;;;;;5.39;57.58;100399.84;5130754;27;20278;-83
2022/05/01 09:18:53;;;;;;;9.15;3.47;;;;;;;5.41;57.90;100424.06;5133522;27;20039;-84
2022/05/01 09:21:24;;;;;;;6.90;2.55;;;;;;;5.06;55.19;100370.25;5137857;27;20111;-85
2022/05/01 09:23:54;;;;;;;15.95;4.40;;;;;;;5.13;59.29;100397.94;5142044;27;20047;-83
2022/05/01 09:26:25;;;;;;;11.00;3.17;;;;;;;5.27;53.98;100421.38;5130052;27;20360;-84
2022/05/01 09:28:58;;;;;;;6.25;2.40;;;;;;;5.39;51.44;100421.47;5128855;27;20150;-84
2022/05/01 09:31:47;;;;;;;14.13;4.55;;;;;;;5.38;54.64;100422.31;5139979;27;20087;-84
2022/05/01 09:34:23;;;;;;;8.38;3.33;;;;;;;4.87;56.41;100389.09;5135054;27;20074;-84
2022/05/01 09:36:54;;;;;;;6.38;3.30;;;;;;;4.84;59.80;100433.06;5129880;27;20040;-84
2022/05/01 09:39:26;;;;;;;16.08;4.20;;;;;;;4.52;60.24;100412.94;5126439;27;20059;-84
2022/05/01 09:42:16;;;;;;;16.88;3.70;;;;;;;4.36;60.98;100411.00;5129458;27;20047;-83
2022/05/01 09:45:04;;;;;;;11.45;3.50;;;;;;;4.36;62.19;100411.00;5138615;27;20493;-84
2022/05/01 09:47:42;;;;;;;14.27;4.80;;;;;;;4.28;63.12;100435.06;5132340;27;20046;-84
2022/05/01 09:50:16;;;;;;;14.20;3.80;;;;;;;4.04;63.62;100434.75;5137175;27;20047;-85
2022/05/01 09:53:00;;;;;;;12.13;3.90;;;;;;;3.98;64.10;100455.38;5132638;27;20107;-84
2022/05/01 09:55:32;;;;;;;11.30;4.63;;;;;;;3.93;64.66;100447.56;5128870;27;20391;-83
2022/05/01 09:58:10;;;;;;;23.67;4.50;;;;;;;3.84;64.57;100469.00;5129750;27;20046;-82
2022/05/01 10:00:43;;;;;;;14.43;4.72;;;;;;;3.84;65.08;100469.00;5125712;27;20278;-84
2022/05/01 10:03:23;;;;;;;12.35;4.47;;;;;;;3.80;65.04;100464.63;5134584;27;20043;-84
2022/05/01 10:05:56;;;;;;;16.40;4.13;;;;;;;3.76;65.33;100465.41;5136332;27;20035;-84
2022/05/01 10:08:28;;;;;;;11.98;4.05;;;;;;;3.57;65.68;100472.03;5149441;27;20045;-85
2022/05/01 10:11:02;;;;;;;15.40;3.90;;;;;;;3.45;65.85;100459.78;5132128;27;20054;-84
2022/05/01 10:13:36;;;;;;;19.02;4.93;;;;;;;3.41;66.42;100470.91;5133796;27;20369;-82
2022/05/01 10:16:11;;;;;;;12.65;4.68;;;;;;;3.48;66.58;100483.94;5133885;27;20106;-85
2022/05/01 10:18:59;;;;;;;9.45;3.70;;;;;;;3.36;66.40;100469.97;5143828;27;20057;-84
2022/05/01 10:21:59;;;;;;;14.13;3.75;;;;;;;3.22;66.41;100471.44;5141391;27;20086;-86
2022/05/01 10:24:30;;;;;;;5.25;2.20;;;;;;;3.51;55.23;100478.81;5130129;27;20051;-80
2022/05/01 10:27:11;;;;;;;7.70;3.20;;;;;;;3.81;59.10;100488.75;5135707;27;20051;-83
2022/05/01 10:33:03;;;;;;;8.88;3.55;;;;;;;3.18;66.09;100495.50;5137353;28;20381;-82
2022/05/01 10:36:12;;;;;;;10.95;4.20;;;;;;;2.94;66.86;100496.78;5139541;27;20380;-80
2022/05/01 10:38:55;;;;;;;11.00;5.18;;;;;;;2.83;67.68;100503.47;5091743;27;20082;-80
2022/05/01 10:41:29;;;;;;;7.95;3.88;;;;;;;2.83;68.64;100510.34;5150986;27;20221;-84
2022/05/01 10:44:00;;;;;;;12.60;3.95;;;;;;;2.74;68.57;100504.16;5126604;28;20048;-84
2022/05/01 10:46:34;;;;;;;18.27;4.55;;;;;;;2.42;68.31;100458.78;5122769;28;20048;-82
2022/05/01 10:49:08;;;;;;;13.15;4.05;;;;;;;2.81;67.79;100525.78;5131853;28;20208;-84
2022/05/01 10:54:38;;;;;;;8.82;4.05;;;;;;;2.70;66.76;100522.16;5125137;28;20044;-81
2022/05/01 10:57:19;;;;;;;16.73;4.65;;;;;;;2.76;66.40;100502.47;5141336;28;20050;-84
2022/05/01 10:59:52;;;;;;;11.35;4.32;;;;;;;2.82;66.36;100524.94;5130663;27;20043;-84
2022/05/01 11:02:31;;;;;;;17.27;4.75;;;;;;;2.81;64.78;100510.31;5139772;27;20315;-83
2022/05/01 11:05:04;;;;;;;15.75;4.90;;;;;;;2.84;65.50;100525.84;5130357;27;20055;-84
2022/05/01 11:07:51;;;;;;;9.10;3.75;;;;;;;2.61;65.24;100485.84;5132574;28;20040;-85
2022/05/01 11:10:50;;;;;;;16.98;4.45;;;;;;;2.16;64.26;100395.56;5134168;28;20261;-87
2022/05/01 11:13:35;;;;;;;13.13;4.20;;;;;;;2.83;62.95;100503.47;5130395;28;20074;-80
2022/05/01 11:16:07;;;;;;;18.05;5.65;;;;;;;2.99;63.80;100528.72;5132195;28;20054;-80
2022/05/01 11:18:55;;;;;;;16.70;4.60;;;;;;;2.98;64.63;100514.06;5119807;28;20045;-83
2022/05/01 11:21:39;;;;;;;20.75;5.13;;;;;;;2.75;67.08;100511.06;5134421;28;20067;-83
2022/05/01 11:24:13;;;;;;;12.57;4.85;;;;;;;2.47;68.79;100501.91;5121734;28;20051;-83
2022/05/01 11:27:16;;;;;;;15.85;5.50;;;;;;;2.33;69.89;100518.81;5140232;27;20047;-83
2022/05/01 11:30:22;;;;;;;16.63;5.72;;;;;;;2.33;70.52;100516.22;5143983;27;20092;-84
2022/05/01 11:33:00;;;;;;;14.80;5.22;;;;;;;2.31;69.93;100513.59;5142735;27;20047;-84
2022/05/01 11:36:04;;;;;;;10.07;4.30;;;;;;;2.20;71.25;100515.09;5136655;27;20252;-83
2022/05/01 11:38:53;;;;;;;11.65;4.43;;;;;;;2.11;71.77;100505.44;5137165;27;20243;-83
2022/05/01 11:41:42;;;;;;;17.70;5.05;;;;;;;1.94;72.77;100496.47;5128802;27;20123;-83
2022/05/01 11:44:24;;;;;;;13.25;5.68;;;;;;;1.84;72.78;100484.22;5145369;27;20043;-85
2022/05/01 11:46:58;;;;;;;14.43;5.80;;;;;;;2.04;72.94;100513.88;5152518;27;20102;-84
2022/05/01 11:49:30;;;;;;;9.48;4.07;;;;;;;2.14;72.71;100513.25;5135470;27;20051;-85
2022/05/01 11:52:01;;;;;;;13.25;4.25;;;;;;;2.07;73.07;100508.81;5147022;27;20106;-83
2022/05/01 11:54:35;;;;;;;8.27;4.03;;;;;;;1.97;73.23;100509.41;5142974;27;20273;-86
2022/05/01 12:02:58;;;;;;;7.72;3.97;;;;;;;1.60;73.88;100469.97;5065616;28;20055;-85
2022/05/01 12:05:30;;;;;;;8.82;4.03;;;;;;;1.73;73.99;100507.19;5128539;27;20044;-85
2022/05/01 12:08:01;;;;;;;8.68;4.10;;;;;;;1.70;74.67;100492.50;5134492;27;20055;-85
2022/05/01 12:10:33;;;;;;;15.90;4.72;;;;;;;1.69;74.68;100503.63;5126207;27;20082;-86
2022/05/01 12:13:18;;;;;;;15.35;4.80;;;;;;;1.40;75.33;100458.28;5131385;27;20049;-86
2022/05/01 12:15:50;;;;;;;17.38;4.90;;;;;;;1.43;75.55;100473.84;5135385;27;20050;-86
2022/05/01 12:18:23;;;;;;;10.43;4.60;;;;;;;1.52;75.66;100497.22;5129248;27;20097;-86
2022/05/01 12:20:54;;;;;;;10.80;4.13;;;;;;;1.47;76.08;100488.50;5130563;27;20084;-86
2022/05/01 12:23:25;;;;;;;14.52;4.93;;;;;;;1.36;75.95;100469.38;5128378;27;20320;-85
2022/05/01 12:25:56;;;;;;;13.75;5.20;;;;;;;1.26;76.41;100458.84;5133282;27;20055;-85
2022/05/01 12:28:27;;;;;;;16.58;4.80;;;;;;;1.40;76.54;100481.47;5125825;27;20039;-86